sensor_id;sensor_type;location;lat;lon;timestamp;temperature;humidity
68385;DHT22;55336;43.062;25.626;2022-10-31T00:00:24;9.60;99.90
68385;DHT22;55336;43.062;25.626;2022-10-31T00:02:50;9.70;99.90
68385;DHT22;55336;43.062;25.626;2022-10-31T00:05:16;9.60;99.90
68385;DHT22;55336;43.062;25.626;2022-10-31T00:07:42;9.70;99.90
68385;DHT22;55336;43.062;25.626;2022-10-31T00:10:07;9.70;99.90
68385;DHT22;55336;43.062;25.626;2022-10-31T00:12:34;9.70;99.90
68385;DHT22;55336;43.062;25.626;2022-10-31T00:14:59;9.70;99.90
68385;DHT22;55336;43.062;25.626;2022-10-31T00:17:25;9.70;99.90
68385;DHT22;55336;43.062;25.626;2022-10-31T00:19:51;9.70;99.90
68385;DHT22;55336;43.062;25.626;2022-10-31T00:22:17;9.80;99.90
68385;DHT22;55336;43.062;25.626;2022-10-31T00:24:42;9.80;99.90
68385;DHT22;55336;43.062;25.626;2022-10-31T00:27:08;9.80;99.90
68385;DHT22;55336;43.062;25.626;2022-10-31T00:29:34;9.90;99.90
68385;DHT22;55336;43.062;25.626;2022-10-31T00:32:00;9.90;99.90
68385;DHT22;55336;43.062;25.626;2022-10-31T00:34:26;9.90;99.90
68385;DHT22;55336;43.062;25.626;2022-10-31T00:36:53;10.00;99.90
68385;DHT22;55336;43.062;25.626;2022-10-31T00:39:19;10.00;99.90
68385;DHT22;55336;43.062;25.626;2022-10-31T00:41:45;10.00;99.90
68385;DHT22;55336;43.062;25.626;2022-10-31T00:44:11;10.00;99.90
68385;DHT22;55336;43.062;25.626;2022-10-31T00:46:37;9.90;99.90
68385;DHT22;55336;43.062;25.626;2022-10-31T00:49:03;9.80;99.90
68385;DHT22;55336;43.062;25.626;2022-10-31T00:51:29;9.70;99.90
68385;DHT22;55336;43.062;25.626;2022-10-31T00:53:55;9.70;99.90
68385;DHT22;55336;43.062;25.626;2022-10-31T00:56:21;9.70;99.90
68385;DHT22;55336;43.062;25.626;2022-10-31T00:58:46;9.70;99.90
68385;DHT22;55336;43.062;25.626;2022-10-31T01:01:12;9.70;99.90
68385;DHT22;55336;43.062;25.626;2022-10-31T01:03:38;9.70;99.90
68385;DHT22;55336;43.062;25.626;2022-10-31T01:06:11;9.70;99.90
68385;DHT22;55336;43.062;25.626;2022-10-31T01:08:38;9.70;99.90
68385;DHT22;55336;43.062;25.626;2022-10-31T01:11:12;9.70;99.90
68385;DHT22;55336;43.062;25.626;2022-10-31T01:13:39;9.60;99.90
68385;DHT22;55336;43.062;25.626;2022-10-31T01:16:08;9.60;99.90
68385;DHT22;55336;43.062;25.626;2022-10-31T01:18:35;9.60;99.90
68385;DHT22;55336;43.062;25.626;2022-10-31T01:21:04;9.60;99.90
68385;DHT22;55336;43.062;25.626;2022-10-31T01:23:30;9.60;99.90
68385;DHT22;55336;43.062;25.626;2022-10-31T01:26:03;9.70;99.90
68385;DHT22;55336;43.062;25.626;2022-10-31T01:28:29;9.80;99.90
68385;DHT22;55336;43.062;25.626;2022-10-31T01:30:54;9.80;99.90
68385;DHT22;55336;43.062;25.626;2022-10-31T01:33:20;9.80;99.90
68385;DHT22;55336;43.062;25.626;2022-10-31T01:35:46;9.90;99.90
68385;DHT22;55336;43.062;25.626;2022-10-31T01:38:12;9.90;99.90
68385;DHT22;55336;43.062;25.626;2022-10-31T01:40:37;9.90;99.90
68385;DHT22;55336;43.062;25.626;2022-10-31T01:43:04;9.90;99.90
68385;DHT22;55336;43.062;25.626;2022-10-31T01:45:29;9.90;99.90
68385;DHT22;55336;43.062;25.626;2022-10-31T01:47:55;10.00;99.90
68385;DHT22;55336;43.062;25.626;2022-10-31T01:50:33;10.00;99.90
68385;DHT22;55336;43.062;25.626;2022-10-31T01:53:01;10.00;99.90
68385;DHT22;55336;43.062;25.626;2022-10-31T01:55:30;9.90;99.90
68385;DHT22;55336;43.062;25.626;2022-10-31T01:58:07;9.90;99.90
68385;DHT22;55336;43.062;25.626;2022-10-31T02:00:35;9.90;99.90
68385;DHT22;55336;43.062;25.626;2022-10-31T02:03:00;9.90;99.90
68385;DHT22;55336;43.062;25.626;2022-10-31T02:05:28;9.90;99.90
68385;DHT22;55336;43.062;25.626;2022-10-31T02:08:16;9.90;99.90
68385;DHT22;55336;43.062;25.626;2022-10-31T02:10:43;10.00;99.90
68385;DHT22;55336;43.062;25.626;2022-10-31T02:13:10;10.00;99.90
68385;DHT22;55336;43.062;25.626;2022-10-31T02:15:39;10.00;99.90
68385;DHT22;55336;43.062;25.626;2022-10-31T02:18:06;10.00;99.90
68385;DHT22;55336;43.062;25.626;2022-10-31T02:20:39;10.10;99.90
68385;DHT22;55336;43.062;25.626;2022-10-31T02:23:21;10.10;99.90
68385;DHT22;55336;43.062;25.626;2022-10-31T02:26:25;10.10;99.90
68385;DHT22;55336;43.062;25.626;2022-10-31T02:37:16;10.30;99.90
68385;DHT22;55336;43.062;25.626;2022-10-31T02:42:50;10.20;99.90
68385;DHT22;55336;43.062;25.626;2022-10-31T02:45:21;10.10;99.90
68385;DHT22;55336;43.062;25.626;2022-10-31T02:47:50;10.00;99.90
68385;DHT22;55336;43.062;25.626;2022-10-31T02:50:30;10.00;99.90
68385;DHT22;55336;43.062;25.626;2022-10-31T02:52:56;9.80;99.90
68385;DHT22;55336;43.062;25.626;2022-10-31T02:57:48;9.60;99.90
68385;DHT22;55336;43.062;25.626;2022-10-31T03:00:15;9.60;99.90
68385;DHT22;55336;43.062;25.626;2022-10-31T03:05:22;9.50;99.90
68385;DHT22;55336;43.062;25.626;2022-10-31T03:07:57;9.40;99.90
68385;DHT22;55336;43.062;25.626;2022-10-31T03:10:34;9.30;99.90
68385;DHT22;55336;43.062;25.626;2022-10-31T03:15:47;9.10;99.90
68385;DHT22;55336;43.062;25.626;2022-10-31T03:18:20;8.90;99.90
68385;DHT22;55336;43.062;25.626;2022-10-31T03:20:49;8.80;99.90
68385;DHT22;55336;43.062;25.626;2022-10-31T03:23:18;8.60;99.90
68385;DHT22;55336;43.062;25.626;2022-10-31T03:25:46;8.50;99.90
68385;DHT22;55336;43.062;25.626;2022-10-31T03:28:16;8.50;99.90
68385;DHT22;55336;43.062;25.626;2022-10-31T03:30:45;8.30;99.90
68385;DHT22;55336;43.062;25.626;2022-10-31T03:33:16;8.30;99.90
68385;DHT22;55336;43.062;25.626;2022-10-31T03:35:46;8.20;99.90
68385;DHT22;55336;43.062;25.626;2022-10-31T03:38:13;8.20;99.90
68385;DHT22;55336;43.062;25.626;2022-10-31T03:40:41;8.10;99.90
68385;DHT22;55336;43.062;25.626;2022-10-31T03:43:12;8.00;99.90
68385;DHT22;55336;43.062;25.626;2022-10-31T03:45:44;7.90;99.90
68385;DHT22;55336;43.062;25.626;2022-10-31T03:48:11;7.80;99.90
68385;DHT22;55336;43.062;25.626;2022-10-31T03:53:24;7.70;99.90
68385;DHT22;55336;43.062;25.626;2022-10-31T03:56:00;7.60;99.90
68385;DHT22;55336;43.062;25.626;2022-10-31T03:58:58;7.60;99.90
68385;DHT22;55336;43.062;25.626;2022-10-31T04:01:26;7.50;99.90
68385;DHT22;55336;43.062;25.626;2022-10-31T04:03:55;7.50;99.90
68385;DHT22;55336;43.062;25.626;2022-10-31T04:06:21;7.50;99.90
68385;DHT22;55336;43.062;25.626;2022-10-31T04:08:52;7.50;99.90
68385;DHT22;55336;43.062;25.626;2022-10-31T04:11:22;7.60;99.90
68385;DHT22;55336;43.062;25.626;2022-10-31T04:13:50;7.70;99.90
68385;DHT22;55336;43.062;25.626;2022-10-31T04:16:17;7.80;99.90
68385;DHT22;55336;43.062;25.626;2022-10-31T04:18:44;7.90;99.90
68385;DHT22;55336;43.062;25.626;2022-10-31T04:21:09;8.00;99.90
68385;DHT22;55336;43.062;25.626;2022-10-31T04:23:36;8.10;99.90
68385;DHT22;55336;43.062;25.626;2022-10-31T04:26:02;8.20;99.90
68385;DHT22;55336;43.062;25.626;2022-10-31T04:28:28;8.30;99.90
68385;DHT22;55336;43.062;25.626;2022-10-31T04:30:54;8.40;99.90
68385;DHT22;55336;43.062;25.626;2022-10-31T04:33:20;8.50;99.90
68385;DHT22;55336;43.062;25.626;2022-10-31T04:35:46;8.60;99.90
68385;DHT22;55336;43.062;25.626;2022-10-31T04:38:12;8.70;99.90
68385;DHT22;55336;43.062;25.626;2022-10-31T04:40:38;8.80;99.90
68385;DHT22;55336;43.062;25.626;2022-10-31T04:43:04;8.80;99.90
68385;DHT22;55336;43.062;25.626;2022-10-31T04:45:29;8.90;99.90
68385;DHT22;55336;43.062;25.626;2022-10-31T04:47:56;8.90;99.90
68385;DHT22;55336;43.062;25.626;2022-10-31T04:50:22;8.90;99.90
68385;DHT22;55336;43.062;25.626;2022-10-31T04:52:48;8.90;99.90
68385;DHT22;55336;43.062;25.626;2022-10-31T04:55:14;8.90;99.90
68385;DHT22;55336;43.062;25.626;2022-10-31T04:57:41;8.80;99.90
68385;DHT22;55336;43.062;25.626;2022-10-31T05:00:07;8.70;99.90
68385;DHT22;55336;43.062;25.626;2022-10-31T05:02:33;8.60;99.90
68385;DHT22;55336;43.062;25.626;2022-10-31T05:05:00;8.60;99.90
68385;DHT22;55336;43.062;25.626;2022-10-31T05:07:25;8.50;99.90
68385;DHT22;55336;43.062;25.626;2022-10-31T05:09:51;8.40;99.90
68385;DHT22;55336;43.062;25.626;2022-10-31T05:12:17;8.30;99.90
68385;DHT22;55336;43.062;25.626;2022-10-31T05:14:43;8.20;99.90
68385;DHT22;55336;43.062;25.626;2022-10-31T05:17:08;8.20;99.90
68385;DHT22;55336;43.062;25.626;2022-10-31T05:19:34;8.20;99.90
68385;DHT22;55336;43.062;25.626;2022-10-31T05:22:00;8.20;99.90
68385;DHT22;55336;43.062;25.626;2022-10-31T05:24:26;8.20;99.90
68385;DHT22;55336;43.062;25.626;2022-10-31T05:26:52;8.10;99.90
68385;DHT22;55336;43.062;25.626;2022-10-31T05:29:17;8.20;99.90
68385;DHT22;55336;43.062;25.626;2022-10-31T05:31:43;8.20;99.90
68385;DHT22;55336;43.062;25.626;2022-10-31T05:34:09;8.20;99.90
68385;DHT22;55336;43.062;25.626;2022-10-31T05:36:35;8.20;99.90
68385;DHT22;55336;43.062;25.626;2022-10-31T05:39:00;8.20;99.90
68385;DHT22;55336;43.062;25.626;2022-10-31T05:41:26;8.20;99.90
68385;DHT22;55336;43.062;25.626;2022-10-31T05:43:52;8.20;99.90
68385;DHT22;55336;43.062;25.626;2022-10-31T05:46:18;8.20;99.90
68385;DHT22;55336;43.062;25.626;2022-10-31T05:48:44;8.30;99.90
68385;DHT22;55336;43.062;25.626;2022-10-31T05:51:10;8.30;99.90
68385;DHT22;55336;43.062;25.626;2022-10-31T05:53:35;8.40;99.90
68385;DHT22;55336;43.062;25.626;2022-10-31T05:56:01;8.50;99.90
68385;DHT22;55336;43.062;25.626;2022-10-31T05:58:27;8.70;99.90
68385;DHT22;55336;43.062;25.626;2022-10-31T06:00:53;8.80;99.90
68385;DHT22;55336;43.062;25.626;2022-10-31T06:03:19;9.00;99.90
68385;DHT22;55336;43.062;25.626;2022-10-31T06:05:45;9.10;99.90
68385;DHT22;55336;43.062;25.626;2022-10-31T06:08:11;9.30;99.90
68385;DHT22;55336;43.062;25.626;2022-10-31T06:10:37;9.60;99.90
68385;DHT22;55336;43.062;25.626;2022-10-31T06:13:03;9.80;99.90
68385;DHT22;55336;43.062;25.626;2022-10-31T06:15:29;10.10;99.90
68385;DHT22;55336;43.062;25.626;2022-10-31T06:17:59;10.50;99.90
68385;DHT22;55336;43.062;25.626;2022-10-31T06:20:25;10.90;99.90
68385;DHT22;55336;43.062;25.626;2022-10-31T06:22:51;11.30;99.90
68385;DHT22;55336;43.062;25.626;2022-10-31T06:25:17;11.70;99.90
68385;DHT22;55336;43.062;25.626;2022-10-31T06:27:43;12.00;99.90
68385;DHT22;55336;43.062;25.626;2022-10-31T06:30:09;12.60;99.90
68385;DHT22;55336;43.062;25.626;2022-10-31T06:32:35;13.10;99.90
68385;DHT22;55336;43.062;25.626;2022-10-31T06:35:01;13.50;99.90
68385;DHT22;55336;43.062;25.626;2022-10-31T06:37:27;13.90;99.90
68385;DHT22;55336;43.062;25.626;2022-10-31T06:39:53;14.20;99.90
68385;DHT22;55336;43.062;25.626;2022-10-31T06:42:19;14.60;99.90
68385;DHT22;55336;43.062;25.626;2022-10-31T06:44:45;14.90;99.90
68385;DHT22;55336;43.062;25.626;2022-10-31T06:47:10;15.40;99.90
68385;DHT22;55336;43.062;25.626;2022-10-31T06:49:36;15.70;99.90
68385;DHT22;55336;43.062;25.626;2022-10-31T06:52:02;15.90;99.90
68385;DHT22;55336;43.062;25.626;2022-10-31T06:54:28;16.00;99.90
68385;DHT22;55336;43.062;25.626;2022-10-31T06:56:55;16.30;99.90
68385;DHT22;55336;43.062;25.626;2022-10-31T06:59:21;16.70;99.90
68385;DHT22;55336;43.062;25.626;2022-10-31T07:01:47;16.80;99.90
68385;DHT22;55336;43.062;25.626;2022-10-31T07:04:13;17.10;99.90
68385;DHT22;55336;43.062;25.626;2022-10-31T07:06:39;17.30;99.90
68385;DHT22;55336;43.062;25.626;2022-10-31T07:09:05;17.40;99.90
68385;DHT22;55336;43.062;25.626;2022-10-31T07:11:31;17.60;99.10
68385;DHT22;55336;43.062;25.626;2022-10-31T07:13:57;17.90;98.50
68385;DHT22;55336;43.062;25.626;2022-10-31T07:16:22;18.00;94.60
68385;DHT22;55336;43.062;25.626;2022-10-31T07:18:51;17.70;93.90
68385;DHT22;55336;43.062;25.626;2022-10-31T07:21:16;17.90;92.90
68385;DHT22;55336;43.062;25.626;2022-10-31T07:23:42;18.20;91.40
68385;DHT22;55336;43.062;25.626;2022-10-31T07:26:09;18.70;88.80
68385;DHT22;55336;43.062;25.626;2022-10-31T07:28:35;19.20;85.10
68385;DHT22;55336;43.062;25.626;2022-10-31T07:31:01;19.60;82.70
68385;DHT22;55336;43.062;25.626;2022-10-31T07:33:26;20.10;78.90
68385;DHT22;55336;43.062;25.626;2022-10-31T07:35:53;20.50;75.90
68385;DHT22;55336;43.062;25.626;2022-10-31T07:38:19;20.70;73.60
68385;DHT22;55336;43.062;25.626;2022-10-31T07:40:50;21.10;70.80
68385;DHT22;55336;43.062;25.626;2022-10-31T07:43:17;21.30;68.70
68385;DHT22;55336;43.062;25.626;2022-10-31T07:45:43;21.30;68.20
68385;DHT22;55336;43.062;25.626;2022-10-31T07:48:08;21.30;67.60
68385;DHT22;55336;43.062;25.626;2022-10-31T07:50:34;21.60;66.60
68385;DHT22;55336;43.062;25.626;2022-10-31T07:55:26;21.90;65.00
68385;DHT22;55336;43.062;25.626;2022-10-31T07:58:07;21.90;63.40
68385;DHT22;55336;43.062;25.626;2022-10-31T08:00:35;22.20;62.40
68385;DHT22;55336;43.062;25.626;2022-10-31T08:03:08;22.50;60.50
68385;DHT22;55336;43.062;25.626;2022-10-31T08:05:35;22.70;59.50
68385;DHT22;55336;43.062;25.626;2022-10-31T08:08:03;23.20;57.80
68385;DHT22;55336;43.062;25.626;2022-10-31T08:10:29;23.60;56.30
68385;DHT22;55336;43.062;25.626;2022-10-31T08:13:03;23.80;55.50
68385;DHT22;55336;43.062;25.626;2022-10-31T08:15:29;23.90;55.70
68385;DHT22;55336;43.062;25.626;2022-10-31T08:17:55;23.50;55.60
68385;DHT22;55336;43.062;25.626;2022-10-31T08:20:21;23.40;56.30
68385;DHT22;55336;43.062;25.626;2022-10-31T08:22:58;23.20;56.40
68385;DHT22;55336;43.062;25.626;2022-10-31T08:25:25;23.50;55.90
68385;DHT22;55336;43.062;25.626;2022-10-31T08:27:56;23.60;56.10
68385;DHT22;55336;43.062;25.626;2022-10-31T08:30:24;23.60;55.50
68385;DHT22;55336;43.062;25.626;2022-10-31T08:32:58;23.90;54.60
68385;DHT22;55336;43.062;25.626;2022-10-31T08:35:24;24.40;53.50
68385;DHT22;55336;43.062;25.626;2022-10-31T08:37:53;24.60;53.00
68385;DHT22;55336;43.062;25.626;2022-10-31T08:40:20;24.60;52.20
68385;DHT22;55336;43.062;25.626;2022-10-31T08:42:46;25.00;51.10
68385;DHT22;55336;43.062;25.626;2022-10-31T08:45:11;24.90;51.00
68385;DHT22;55336;43.062;25.626;2022-10-31T08:47:37;25.20;50.80
68385;DHT22;55336;43.062;25.626;2022-10-31T08:50:03;25.20;50.80
68385;DHT22;55336;43.062;25.626;2022-10-31T08:52:29;25.20;49.70
68385;DHT22;55336;43.062;25.626;2022-10-31T08:54:55;25.40;50.40
68385;DHT22;55336;43.062;25.626;2022-10-31T08:57:20;25.50;49.00
68385;DHT22;55336;43.062;25.626;2022-10-31T08:59:46;25.40;48.50
68385;DHT22;55336;43.062;25.626;2022-10-31T09:02:12;25.30;48.50
68385;DHT22;55336;43.062;25.626;2022-10-31T09:04:37;25.40;48.70
68385;DHT22;55336;43.062;25.626;2022-10-31T09:07:03;25.70;48.40
68385;DHT22;55336;43.062;25.626;2022-10-31T09:09:29;25.70;47.80
68385;DHT22;55336;43.062;25.626;2022-10-31T09:11:55;25.60;48.70
68385;DHT22;55336;43.062;25.626;2022-10-31T09:14:20;25.50;49.50
68385;DHT22;55336;43.062;25.626;2022-10-31T09:16:46;24.80;50.00
68385;DHT22;55336;43.062;25.626;2022-10-31T09:19:11;24.70;49.50
68385;DHT22;55336;43.062;25.626;2022-10-31T09:21:37;24.90;49.40
68385;DHT22;55336;43.062;25.626;2022-10-31T09:24:03;25.00;49.30
68385;DHT22;55336;43.062;25.626;2022-10-31T09:26:29;25.20;48.10
68385;DHT22;55336;43.062;25.626;2022-10-31T09:29:01;25.30;48.40
68385;DHT22;55336;43.062;25.626;2022-10-31T09:31:27;25.70;46.60
68385;DHT22;55336;43.062;25.626;2022-10-31T09:33:53;25.20;47.30
68385;DHT22;55336;43.062;25.626;2022-10-31T09:36:20;25.40;48.10
68385;DHT22;55336;43.062;25.626;2022-10-31T09:38:45;25.70;46.60
68385;DHT22;55336;43.062;25.626;2022-10-31T09:44:29;25.90;46.20
68385;DHT22;55336;43.062;25.626;2022-10-31T09:47:22;26.10;46.30
68385;DHT22;55336;43.062;25.626;2022-10-31T09:49:56;25.90;46.80
68385;DHT22;55336;43.062;25.626;2022-10-31T09:52:30;25.80;45.90
68385;DHT22;55336;43.062;25.626;2022-10-31T09:57:32;26.60;44.90
68385;DHT22;55336;43.062;25.626;2022-10-31T09:59:59;27.10;44.00
68385;DHT22;55336;43.062;25.626;2022-10-31T10:02:39;27.40;42.30
68385;DHT22;55336;43.062;25.626;2022-10-31T10:05:42;27.00;43.20
68385;DHT22;55336;43.062;25.626;2022-10-31T10:08:23;26.70;44.60
68385;DHT22;55336;43.062;25.626;2022-10-31T10:11:06;27.50;41.70
68385;DHT22;55336;43.062;25.626;2022-10-31T10:16:16;28.10;41.30
68385;DHT22;55336;43.062;25.626;2022-10-31T10:30:19;28.20;40.50
68385;DHT22;55336;43.062;25.626;2022-10-31T10:32:58;28.20;39.60
68385;DHT22;55336;43.062;25.626;2022-10-31T10:37:56;27.90;40.10
68385;DHT22;55336;43.062;25.626;2022-10-31T10:40:27;27.40;41.20
68385;DHT22;55336;43.062;25.626;2022-10-31T10:45:50;27.70;39.80
68385;DHT22;55336;43.062;25.626;2022-10-31T10:48:47;27.30;41.00
68385;DHT22;55336;43.062;25.626;2022-10-31T10:51:27;27.50;41.00
68385;DHT22;55336;43.062;25.626;2022-10-31T10:54:08;28.00;40.30
68385;DHT22;55336;43.062;25.626;2022-10-31T10:59:21;28.40;38.20
68385;DHT22;55336;43.062;25.626;2022-10-31T11:01:49;28.50;38.30
68385;DHT22;55336;43.062;25.626;2022-10-31T11:04:26;27.40;39.60
68385;DHT22;55336;43.062;25.626;2022-10-31T11:07:09;26.00;43.70
68385;DHT22;55336;43.062;25.626;2022-10-31T11:09:36;26.50;42.60
68385;DHT22;55336;43.062;25.626;2022-10-31T11:12:24;27.50;42.60
68385;DHT22;55336;43.062;25.626;2022-10-31T11:14:58;28.30;38.90
68385;DHT22;55336;43.062;25.626;2022-10-31T11:17:32;28.10;38.60
68385;DHT22;55336;43.062;25.626;2022-10-31T11:22:37;28.10;38.90
68385;DHT22;55336;43.062;25.626;2022-10-31T11:25:22;28.40;39.30
68385;DHT22;55336;43.062;25.626;2022-10-31T11:28:00;28.30;38.60
68385;DHT22;55336;43.062;25.626;2022-10-31T11:30:26;27.80;38.60
68385;DHT22;55336;43.062;25.626;2022-10-31T11:32:52;27.90;39.10
68385;DHT22;55336;43.062;25.626;2022-10-31T11:35:20;27.60;39.00
68385;DHT22;55336;43.062;25.626;2022-10-31T11:37:49;27.50;39.80
68385;DHT22;55336;43.062;25.626;2022-10-31T11:40:26;27.40;39.50
68385;DHT22;55336;43.062;25.626;2022-10-31T11:42:56;27.30;39.80
68385;DHT22;55336;43.062;25.626;2022-10-31T11:47:51;26.90;40.60
68385;DHT22;55336;43.062;25.626;2022-10-31T11:50:37;27.00;41.10
68385;DHT22;55336;43.062;25.626;2022-10-31T11:53:11;26.50;41.80
68385;DHT22;55336;43.062;25.626;2022-10-31T11:55:39;26.50;42.10
68385;DHT22;55336;43.062;25.626;2022-10-31T11:58:20;26.20;42.80
68385;DHT22;55336;43.062;25.626;2022-10-31T12:00:52;26.30;43.40
68385;DHT22;55336;43.062;25.626;2022-10-31T12:06:00;26.00;43.00
68385;DHT22;55336;43.062;25.626;2022-10-31T12:08:35;26.10;44.90
68385;DHT22;55336;43.062;25.626;2022-10-31T12:13:34;26.20;44.40
68385;DHT22;55336;43.062;25.626;2022-10-31T12:16:35;25.60;44.60
68385;DHT22;55336;43.062;25.626;2022-10-31T12:19:05;25.70;44.10
68385;DHT22;55336;43.062;25.626;2022-10-31T12:21:53;26.10;43.60
68385;DHT22;55336;43.062;25.626;2022-10-31T12:43:22;26.80;41.40
68385;DHT22;55336;43.062;25.626;2022-10-31T12:45:56;26.20;43.10
68385;DHT22;55336;43.062;25.626;2022-10-31T12:53:39;25.80;42.80
68385;DHT22;55336;43.062;25.626;2022-10-31T12:59:00;25.90;44.00
68385;DHT22;55336;43.062;25.626;2022-10-31T13:01:49;26.40;42.70
68385;DHT22;55336;43.062;25.626;2022-10-31T13:07:14;26.70;41.70
68385;DHT22;55336;43.062;25.626;2022-10-31T13:09:57;26.20;42.90
68385;DHT22;55336;43.062;25.626;2022-10-31T13:12:27;25.70;44.10
68385;DHT22;55336;43.062;25.626;2022-10-31T13:14:57;25.60;44.10
68385;DHT22;55336;43.062;25.626;2022-10-31T13:17:34;25.40;45.00
68385;DHT22;55336;43.062;25.626;2022-10-31T13:22:55;24.70;46.30
68385;DHT22;55336;43.062;25.626;2022-10-31T13:25:28;24.50;46.40
68385;DHT22;55336;43.062;25.626;2022-10-31T13:31:16;24.00;47.80
68385;DHT22;55336;43.062;25.626;2022-10-31T13:33:43;23.80;48.20
68385;DHT22;55336;43.062;25.626;2022-10-31T13:36:21;23.70;48.70
68385;DHT22;55336;43.062;25.626;2022-10-31T13:45:26;23.70;49.20
68385;DHT22;55336;43.062;25.626;2022-10-31T13:48:44;23.70;49.00
68385;DHT22;55336;43.062;25.626;2022-10-31T13:51:29;23.90;48.90
68385;DHT22;55336;43.062;25.626;2022-10-31T13:54:05;24.20;48.60
68385;DHT22;55336;43.062;25.626;2022-10-31T13:56:35;24.70;47.60
68385;DHT22;55336;43.062;25.626;2022-10-31T13:59:23;25.00;47.10
68385;DHT22;55336;43.062;25.626;2022-10-31T14:02:16;25.30;45.50
68385;DHT22;55336;43.062;25.626;2022-10-31T14:04:52;25.40;45.50
68385;DHT22;55336;43.062;25.626;2022-10-31T14:07:21;25.20;45.10
68385;DHT22;55336;43.062;25.626;2022-10-31T14:12:30;25.00;45.60
68385;DHT22;55336;43.062;25.626;2022-10-31T14:15:05;25.00;45.80
68385;DHT22;55336;43.062;25.626;2022-10-31T14:17:46;24.70;46.60
68385;DHT22;55336;43.062;25.626;2022-10-31T14:22:40;23.90;48.20
68385;DHT22;55336;43.062;25.626;2022-10-31T14:25:32;23.40;50.10
68385;DHT22;55336;43.062;25.626;2022-10-31T14:28:00;23.00;50.60
68385;DHT22;55336;43.062;25.626;2022-10-31T14:30:28;22.70;51.70
68385;DHT22;55336;43.062;25.626;2022-10-31T14:33:18;22.30;51.80
68385;DHT22;55336;43.062;25.626;2022-10-31T14:36:02;22.00;53.50
68385;DHT22;55336;43.062;25.626;2022-10-31T14:38:46;21.60;55.60
68385;DHT22;55336;43.062;25.626;2022-10-31T14:52:07;19.90;61.20
68385;DHT22;55336;43.062;25.626;2022-10-31T14:54:39;19.60;63.50
68385;DHT22;55336;43.062;25.626;2022-10-31T14:59:53;19.00;65.70
68385;DHT22;55336;43.062;25.626;2022-10-31T15:02:24;18.80;67.00
68385;DHT22;55336;43.062;25.626;2022-10-31T15:04:52;18.50;69.20
68385;DHT22;55336;43.062;25.626;2022-10-31T15:07:26;18.20;70.10
68385;DHT22;55336;43.062;25.626;2022-10-31T15:10:03;18.00;70.20
68385;DHT22;55336;43.062;25.626;2022-10-31T15:12:31;17.80;70.90
68385;DHT22;55336;43.062;25.626;2022-10-31T15:15:10;17.50;71.60
68385;DHT22;55336;43.062;25.626;2022-10-31T15:17:36;17.30;73.60
68385;DHT22;55336;43.062;25.626;2022-10-31T15:20:10;17.00;74.30
68385;DHT22;55336;43.062;25.626;2022-10-31T15:22:38;16.80;76.30
68385;DHT22;55336;43.062;25.626;2022-10-31T15:25:10;16.60;76.10
68385;DHT22;55336;43.062;25.626;2022-10-31T15:27:40;16.50;77.20
68385;DHT22;55336;43.062;25.626;2022-10-31T15:30:20;16.30;77.60
68385;DHT22;55336;43.062;25.626;2022-10-31T15:32:47;16.10;79.10
68385;DHT22;55336;43.062;25.626;2022-10-31T15:35:29;15.80;78.90
68385;DHT22;55336;43.062;25.626;2022-10-31T15:37:56;15.60;81.30
68385;DHT22;55336;43.062;25.626;2022-10-31T15:40:24;15.50;82.50
68385;DHT22;55336;43.062;25.626;2022-10-31T15:45:21;15.20;84.00
68385;DHT22;55336;43.062;25.626;2022-10-31T15:47:57;15.10;84.10
68385;DHT22;55336;43.062;25.626;2022-10-31T15:52:52;14.80;86.20
68385;DHT22;55336;43.062;25.626;2022-10-31T15:55:26;14.60;87.30
68385;DHT22;55336;43.062;25.626;2022-10-31T15:58:00;14.50;88.60
68385;DHT22;55336;43.062;25.626;2022-10-31T16:00:35;14.40;90.30
68385;DHT22;55336;43.062;25.626;2022-10-31T16:05:45;14.10;92.70
68385;DHT22;55336;43.062;25.626;2022-10-31T16:13:34;13.80;99.20
68385;DHT22;55336;43.062;25.626;2022-10-31T16:16:04;13.60;99.90
68385;DHT22;55336;43.062;25.626;2022-10-31T16:18:35;13.60;99.90
68385;DHT22;55336;43.062;25.626;2022-10-31T16:21:03;13.50;99.90
68385;DHT22;55336;43.062;25.626;2022-10-31T16:23:29;13.40;99.90
68385;DHT22;55336;43.062;25.626;2022-10-31T16:25:55;13.30;99.90
68385;DHT22;55336;43.062;25.626;2022-10-31T16:28:26;13.20;99.90
68385;DHT22;55336;43.062;25.626;2022-10-31T16:30:54;13.10;99.90
68385;DHT22;55336;43.062;25.626;2022-10-31T16:33:36;13.00;99.90
68385;DHT22;55336;43.062;25.626;2022-10-31T16:38:53;12.70;99.90
68385;DHT22;55336;43.062;25.626;2022-10-31T16:41:20;12.60;99.90
68385;DHT22;55336;43.062;25.626;2022-10-31T16:43:46;12.50;99.90
68385;DHT22;55336;43.062;25.626;2022-10-31T16:46:18;12.40;99.90
68385;DHT22;55336;43.062;25.626;2022-10-31T16:48:45;12.40;99.90
68385;DHT22;55336;43.062;25.626;2022-10-31T16:51:11;12.40;99.90
68385;DHT22;55336;43.062;25.626;2022-10-31T16:53:37;12.30;99.90
68385;DHT22;55336;43.062;25.626;2022-10-31T16:56:04;12.30;99.90
68385;DHT22;55336;43.062;25.626;2022-10-31T16:58:32;12.20;99.90
68385;DHT22;55336;43.062;25.626;2022-10-31T17:01:03;12.10;99.90
68385;DHT22;55336;43.062;25.626;2022-10-31T17:03:31;12.00;99.90
68385;DHT22;55336;43.062;25.626;2022-10-31T17:05:57;11.90;99.90
68385;DHT22;55336;43.062;25.626;2022-10-31T17:08:23;11.90;99.90
68385;DHT22;55336;43.062;25.626;2022-10-31T17:10:54;11.80;99.90
68385;DHT22;55336;43.062;25.626;2022-10-31T17:13:23;11.70;99.90
68385;DHT22;55336;43.062;25.626;2022-10-31T17:15:51;11.70;99.90
68385;DHT22;55336;43.062;25.626;2022-10-31T17:18:18;11.60;99.90
68385;DHT22;55336;43.062;25.626;2022-10-31T17:20:44;11.60;99.90
68385;DHT22;55336;43.062;25.626;2022-10-31T17:23:11;11.50;99.90
68385;DHT22;55336;43.062;25.626;2022-10-31T17:25:38;11.40;99.90
68385;DHT22;55336;43.062;25.626;2022-10-31T17:28:04;11.40;99.90
68385;DHT22;55336;43.062;25.626;2022-10-31T17:30:30;11.30;99.90
68385;DHT22;55336;43.062;25.626;2022-10-31T17:32:56;11.30;99.90
68385;DHT22;55336;43.062;25.626;2022-10-31T17:35:22;11.20;99.90
68385;DHT22;55336;43.062;25.626;2022-10-31T17:37:49;11.10;99.90
68385;DHT22;55336;43.062;25.626;2022-10-31T17:40:17;11.10;99.90
68385;DHT22;55336;43.062;25.626;2022-10-31T17:42:56;11.00;99.90
68385;DHT22;55336;43.062;25.626;2022-10-31T17:45:23;10.90;99.90
68385;DHT22;55336;43.062;25.626;2022-10-31T17:47:51;10.90;99.90
68385;DHT22;55336;43.062;25.626;2022-10-31T17:50:20;10.80;99.90
68385;DHT22;55336;43.062;25.626;2022-10-31T17:52:48;10.70;99.90
68385;DHT22;55336;43.062;25.626;2022-10-31T17:55:15;10.60;99.90